createdAt,value
2023-04-29T00:01:09.029Z,75.90
2023-04-29T00:03:37.361Z,75.22
2023-04-29T00:06:05.897Z,75.69
2023-04-29T00:08:34.203Z,77.70
2023-04-29T00:11:02.349Z,75.96
2023-04-29T00:13:30.507Z,77.10
2023-04-29T00:15:58.667Z,77.31
2023-04-29T00:18:26.847Z,77.28
2023-04-29T00:20:55.007Z,77.17
2023-04-29T00:23:23.133Z,77.27
2023-04-29T00:25:53.614Z,79.39
2023-04-29T00:28:21.835Z,81.66
2023-04-29T00:30:51.379Z,82.15
2023-04-29T00:33:20.141Z,80.85
2023-04-29T00:35:48.428Z,81.74
2023-04-29T00:38:16.614Z,80.70
2023-04-29T00:40:45.015Z,81.55
2023-04-29T00:43:13.581Z,77.68
2023-04-29T00:45:41.796Z,78.05
2023-04-29T00:48:10.060Z,80.11
2023-04-29T00:50:38.634Z,79.65
2023-04-29T00:53:07.156Z,78.89
2023-04-29T00:55:35.658Z,77.75
2023-04-29T00:58:04.428Z,80.15
2023-04-29T01:00:33.062Z,80.61
2023-04-29T01:03:01.594Z,81.96
2023-04-29T01:05:29.895Z,80.22
2023-04-29T01:08:10.180Z,81.74
2023-04-29T01:10:41.939Z,78.91
2023-04-29T01:13:14.479Z,81.11
2023-04-29T01:16:15.389Z,82.64
2023-04-29T01:18:46.348Z,83.47
2023-04-29T01:21:18.294Z,83.90
2023-04-29T01:23:46.506Z,81.46
2023-04-29T01:26:15.149Z,81.40
2023-04-29T01:29:38.886Z,81.79
2023-04-29T01:32:12.828Z,81.88
2023-04-29T01:34:47.049Z,83.15
2023-04-29T01:37:15.800Z,82.87
2023-04-29T01:39:56.871Z,83.26
2023-04-29T01:42:46.567Z,83.39
2023-04-29T01:45:18.675Z,83.76
2023-04-29T01:47:47.518Z,83.36
2023-04-29T01:50:16.381Z,84.40
2023-04-29T01:52:44.437Z,84.23
2023-04-29T01:55:12.549Z,83.81
2023-04-29T01:57:48.563Z,84.38
2023-04-29T02:00:39.720Z,84.90
2023-04-29T02:03:07.971Z,83.97
2023-04-29T02:05:41.544Z,83.10
2023-04-29T02:08:09.704Z,83.58
2023-04-29T02:10:41.367Z,84.21
2023-04-29T02:13:24.988Z,82.48
2023-04-29T02:15:53.453Z,83.51
2023-04-29T02:18:21.736Z,83.83
2023-04-29T02:20:51.249Z,82.63
2023-04-29T02:23:19.461Z,81.85
2023-04-29T02:25:47.891Z,83.73
2023-04-29T02:28:16.041Z,84.39
2023-04-29T02:30:44.849Z,85.40
2023-04-29T02:33:13.140Z,83.53
2023-04-29T02:35:41.412Z,83.03
2023-04-29T02:38:09.545Z,85.56
2023-04-29T02:40:42.239Z,85.04
2023-04-29T02:43:10.505Z,84.72
2023-04-29T02:45:39.260Z,82.65
2023-04-29T02:48:07.822Z,81.78
2023-04-29T02:50:36.107Z,81.97
2023-04-29T02:53:04.517Z,83.13
2023-04-29T02:55:33.147Z,84.58
2023-04-29T02:58:06.212Z,86.12
2023-04-29T03:00:34.332Z,85.11
2023-04-29T03:03:02.619Z,81.21
2023-04-29T03:05:30.940Z,83.21
2023-04-29T03:07:59.313Z,84.73
2023-04-29T03:10:27.628Z,84.39
2023-04-29T03:12:55.776Z,84.82
2023-04-29T03:15:23.829Z,85.14
2023-04-29T03:17:52.313Z,84.77
2023-04-29T03:20:20.816Z,85.20
2023-04-29T03:22:49.062Z,85.15
2023-04-29T03:25:17.489Z,83.25
2023-04-29T03:27:45.793Z,81.34
2023-04-29T03:30:13.950Z,80.79
2023-04-29T03:32:47.038Z,83.08
2023-04-29T03:35:16.052Z,85.06
2023-04-29T03:38:20.726Z,84.40
2023-04-29T03:40:49.295Z,82.98
2023-04-29T03:43:18.325Z,84.31
2023-04-29T03:45:46.715Z,85.20
2023-04-29T03:48:17.304Z,84.51
2023-04-29T03:50:45.722Z,85.41
2023-04-29T03:53:14.170Z,81.44
2023-04-29T03:55:42.360Z,83.04
2023-04-29T03:58:11.456Z,85.30
2023-04-29T04:00:39.624Z,87.55
2023-04-29T04:03:09.739Z,86.38
2023-04-29T04:05:39.019Z,87.42
2023-04-29T04:08:11.084Z,85.39
2023-04-29T04:11:05.692Z,83.61
2023-04-29T04:13:37.406Z,84.34
2023-04-29T04:16:05.847Z,84.13
2023-04-29T04:18:33.934Z,83.49
2023-04-29T04:21:06.202Z,85.24
2023-04-29T04:23:34.551Z,85.13
2023-04-29T04:26:03.877Z,82.17
2023-04-29T04:29:07.475Z,82.01
2023-04-29T04:31:55.971Z,80.42
2023-04-29T04:34:24.239Z,79.50
2023-04-29T04:36:53.366Z,81.12
2023-04-29T04:39:23.430Z,79.67
2023-04-29T04:41:51.973Z,79.65
2023-04-29T04:44:21.028Z,80.37
2023-04-29T04:47:01.477Z,82.79
2023-04-29T04:49:56.450Z,83.86
2023-04-29T04:52:24.667Z,82.63
2023-04-29T04:55:03.319Z,83.40
2023-04-29T04:57:31.963Z,83.18
2023-04-29T05:00:02.578Z,83.16
2023-04-29T05:02:30.903Z,80.62
2023-04-29T05:04:59.158Z,81.15
2023-04-29T05:07:28.573Z,81.24
2023-04-29T05:10:06.777Z,81.44
2023-04-29T05:12:36.398Z,81.52
2023-04-29T05:15:04.965Z,79.61
2023-04-29T05:17:34.786Z,73.52
2023-04-29T05:20:03.173Z,68.63
2023-04-29T05:22:31.600Z,68.13
2023-04-29T05:25:03.254Z,66.15
2023-04-29T05:27:32.286Z,66.15
2023-04-29T05:30:01.457Z,63.67
2023-04-29T05:32:29.654Z,55.66
2023-04-29T05:34:57.923Z,56.52
2023-04-29T05:37:30.893Z,65.72
2023-04-29T05:40:25.374Z,56.87
2023-04-29T05:42:56.088Z,58.18
2023-04-29T05:45:24.235Z,65.80
2023-04-29T05:47:52.511Z,61.65
2023-04-29T05:50:21.067Z,56.45
2023-04-29T05:52:49.251Z,50.86
2023-04-29T05:55:17.733Z,56.99
2023-04-29T05:57:46.104Z,46.81
2023-04-29T06:00:14.311Z,48.06
2023-04-29T06:02:54.882Z,56.54
2023-04-29T06:05:27.408Z,43.22
2023-04-29T06:08:22.157Z,43.94
2023-04-29T06:11:05.447Z,41.47
2023-04-29T06:13:33.590Z,45.06
2023-04-29T06:16:01.754Z,39.39
2023-04-29T06:18:33.573Z,40.91
2023-04-29T06:21:01.702Z,39.67
2023-04-29T06:23:29.812Z,42.83
2023-04-29T06:26:00.903Z,39.71
2023-04-29T06:28:30.125Z,42.25
2023-04-29T06:30:58.377Z,41.14
2023-04-29T06:33:27.058Z,39.04
2023-04-29T06:35:55.364Z,38.42
2023-04-29T06:38:40.534Z,41.46
2023-04-29T06:41:27.467Z,45.05
2023-04-29T06:43:58.538Z,39.59
2023-04-29T06:46:37.384Z,42.90
2023-04-29T06:49:11.737Z,38.79
2023-04-29T06:51:40.024Z,43.32
2023-04-29T06:54:08.232Z,45.14
2023-04-29T06:56:36.577Z,39.47
2023-04-29T06:59:04.817Z,38.64
2023-04-29T07:01:33.018Z,40.45
2023-04-29T07:04:01.331Z,37.17
2023-04-29T07:06:29.617Z,38.85
2023-04-29T07:08:57.710Z,39.72
2023-04-29T07:11:27.338Z,37.17
2023-04-29T07:13:55.596Z,34.03
2023-04-29T07:16:26.694Z,37.93
2023-04-29T07:18:55.078Z,36.11
2023-04-29T07:21:23.289Z,36.22
2023-04-29T07:23:51.388Z,38.48
2023-04-29T07:26:19.466Z,35.48
2023-04-29T07:28:48.405Z,34.18
2023-04-29T07:31:16.850Z,33.11
2023-04-29T07:33:45.239Z,32.97
2023-04-29T07:36:13.420Z,32.68
2023-04-29T07:38:41.870Z,35.10
2023-04-29T07:41:10.034Z,32.55
2023-04-29T07:43:39.242Z,32.41
2023-04-29T07:46:09.131Z,31.11
2023-04-29T07:48:40.301Z,30.71
2023-04-29T07:51:12.679Z,31.03
2023-04-29T07:53:41.057Z,32.47
2023-04-29T07:56:09.622Z,33.39
2023-04-29T07:58:37.978Z,32.70
2023-04-29T08:01:10.247Z,33.24
2023-04-29T08:03:41.054Z,30.61
2023-04-29T08:06:10.606Z,32.74
2023-04-29T08:08:38.755Z,31.12
2023-04-29T08:11:06.870Z,30.30
2023-04-29T08:13:37.851Z,30.02
2023-04-29T08:16:06.485Z,29.38
2023-04-29T08:18:34.688Z,30.03
2023-04-29T08:21:04.029Z,31.42
2023-04-29T08:23:33.084Z,30.92
2023-04-29T08:26:01.577Z,27.58
2023-04-29T08:28:29.657Z,28.86
2023-04-29T08:30:58.034Z,28.03
2023-04-29T08:33:26.130Z,29.95
2023-04-29T08:36:00.909Z,28.72
2023-04-29T08:38:29.052Z,29.54
2023-04-29T08:40:57.190Z,28.38
2023-04-29T08:43:25.605Z,27.56
2023-04-29T08:45:54.223Z,26.88
2023-04-29T08:48:22.647Z,26.52
2023-04-29T08:50:50.921Z,27.14
2023-04-29T08:53:19.305Z,25.55
2023-04-29T08:55:48.298Z,25.70
2023-04-29T08:58:16.520Z,24.47
2023-04-29T09:00:45.285Z,24.63
2023-04-29T09:03:17.052Z,26.01
2023-04-29T09:05:49.344Z,26.73
2023-04-29T09:08:18.035Z,26.79
2023-04-29T09:10:46.230Z,27.29
2023-04-29T09:13:26.934Z,26.53
2023-04-29T09:15:55.142Z,24.64
2023-04-29T09:18:41.967Z,25.47
2023-04-29T09:21:13.406Z,25.71
2023-04-29T09:23:41.810Z,26.50
2023-04-29T09:26:09.978Z,26.17
2023-04-29T09:28:39.914Z,26.49
2023-04-29T09:31:08.723Z,26.91
2023-04-29T09:33:54.642Z,26.54
2023-04-29T09:36:37.979Z,26.47
2023-04-29T09:39:12.859Z,24.13
2023-04-29T09:41:52.882Z,25.58
2023-04-29T09:44:25.013Z,24.10
2023-04-29T09:46:56.084Z,24.18
2023-04-29T09:49:28.254Z,25.20
2023-04-29T09:51:57.748Z,24.62
2023-04-29T09:54:28.650Z,24.61
2023-04-29T09:56:58.539Z,25.73
2023-04-29T09:59:27.025Z,22.42
2023-04-29T10:01:56.247Z,22.30
2023-04-29T10:04:25.606Z,22.32
2023-04-29T10:06:54.577Z,24.85
2023-04-29T10:09:23.377Z,24.42
2023-04-29T10:11:52.566Z,25.49
2023-04-29T10:14:25.025Z,22.75
2023-04-29T10:17:02.073Z,22.10
2023-04-29T10:19:54.448Z,22.86
2023-04-29T10:22:40.646Z,22.05
2023-04-29T10:25:10.193Z,22.20
2023-04-29T10:27:39.940Z,24.16
2023-04-29T10:30:09.730Z,24.30
2023-04-29T10:32:50.604Z,23.30
2023-04-29T10:35:23.814Z,24.74
2023-04-29T10:37:53.436Z,25.27
2023-04-29T10:40:36.550Z,23.75
2023-04-29T10:43:04.833Z,23.74
2023-04-29T10:45:36.454Z,24.90
2023-04-29T10:48:09.041Z,26.00
2023-04-29T10:50:49.540Z,25.17
2023-04-29T10:53:20.825Z,23.77
2023-04-29T10:55:53.482Z,21.16
2023-04-29T10:58:33.863Z,21.46
2023-04-29T11:01:02.583Z,22.45
2023-04-29T11:03:49.406Z,21.28
2023-04-29T11:06:17.820Z,22.60
2023-04-29T11:08:46.037Z,23.19
2023-04-29T11:11:14.817Z,23.29
2023-04-29T11:13:46.251Z,24.32
2023-04-29T11:16:14.606Z,24.13
2023-04-29T11:19:01.518Z,25.56
2023-04-29T11:21:29.588Z,25.44
2023-04-29T11:23:57.873Z,24.87
2023-04-29T11:26:25.919Z,24.39
2023-04-29T11:28:54.817Z,24.30
2023-04-29T11:31:28.837Z,24.32
2023-04-29T11:33:57.211Z,21.55
2023-04-29T11:36:25.917Z,21.59
2023-04-29T11:38:54.061Z,23.52
2023-04-29T11:41:22.659Z,22.51
2023-04-29T11:43:57.917Z,17.86
2023-04-29T11:46:29.126Z,22.69
2023-04-29T11:48:57.663Z,19.55
2023-04-29T11:51:25.976Z,16.69
2023-04-29T11:53:54.233Z,20.51
2023-04-29T11:56:26.049Z,20.56
2023-04-29T11:58:55.970Z,21.52
2023-04-29T12:01:25.482Z,21.57
2023-04-29T12:03:58.333Z,22.50
2023-04-29T12:06:30.492Z,18.76
2023-04-29T12:08:59.450Z,20.19
2023-04-29T12:11:29.146Z,23.27
2023-04-29T12:13:58.278Z,22.79
2023-04-29T12:16:29.383Z,23.19
2023-04-29T12:18:58.842Z,22.10
2023-04-29T12:21:29.753Z,22.45
2023-04-29T12:24:02.340Z,23.31
2023-04-29T12:26:31.570Z,23.24
2023-04-29T12:28:59.847Z,24.44
2023-04-29T12:31:37.141Z,22.88
2023-04-29T12:34:08.264Z,23.06
2023-04-29T12:36:37.948Z,23.85
2023-04-29T12:39:09.683Z,23.32
2023-04-29T12:41:41.565Z,22.97
2023-04-29T12:44:12.933Z,23.45
2023-04-29T12:46:41.895Z,23.59
2023-04-29T12:49:10.109Z,24.72
2023-04-29T12:51:38.361Z,23.86
2023-04-29T12:54:07.490Z,24.60
2023-04-29T12:56:35.844Z,22.23
2023-04-29T12:59:10.164Z,22.69
2023-04-29T13:01:39.088Z,23.90
2023-04-29T13:04:09.153Z,23.96
2023-04-29T13:06:42.006Z,21.70
2023-04-29T13:09:17.074Z,21.41
2023-04-29T13:11:46.978Z,22.90
2023-04-29T13:14:15.719Z,22.61
2023-04-29T13:16:44.383Z,23.71
2023-04-29T13:19:29.518Z,22.42
2023-04-29T13:22:00.931Z,22.33
2023-04-29T13:24:29.076Z,23.88
2023-04-29T13:26:58.356Z,23.83
2023-04-29T13:29:27.013Z,23.83
2023-04-29T13:31:55.141Z,24.27
2023-04-29T13:34:23.252Z,23.66
2023-04-29T13:36:51.422Z,23.53
2023-04-29T13:39:22.955Z,22.06
2023-04-29T13:41:51.713Z,21.10
2023-04-29T13:44:29.453Z,21.17
2023-04-29T13:47:05.567Z,21.89
2023-04-29T13:52:58.425Z,22.09
2023-04-29T13:59:56.037Z,21.97
2023-04-29T14:02:26.061Z,23.79
2023-04-29T14:04:55.744Z,22.24
2023-04-29T14:07:24.288Z,22.31
2023-04-29T14:09:52.382Z,22.11
2023-04-29T14:12:20.483Z,23.65
2023-04-29T14:14:49.126Z,24.23
2023-04-29T14:17:17.419Z,23.83
2023-04-29T14:19:45.603Z,22.70
2023-04-29T14:22:13.793Z,23.74
2023-04-29T14:24:41.916Z,23.95
2023-04-29T14:27:10.098Z,24.58
2023-04-29T14:29:38.349Z,24.59
2023-04-29T14:32:07.552Z,25.34
2023-04-29T14:34:35.621Z,24.98
2023-04-29T14:37:03.666Z,24.27
2023-04-29T14:39:31.789Z,24.85
2023-04-29T14:42:01.568Z,26.06
2023-04-29T14:44:31.315Z,26.80
2023-04-29T14:46:59.478Z,26.67
2023-04-29T14:49:29.040Z,26.74
2023-04-29T14:51:59.347Z,27.23
2023-04-29T14:54:28.096Z,26.74
2023-04-29T14:56:56.366Z,26.96
2023-04-29T14:59:24.488Z,26.69
2023-04-29T15:01:52.716Z,26.79
2023-04-29T15:04:20.940Z,25.89
2023-04-29T15:06:50.289Z,26.55
2023-04-29T15:09:18.460Z,26.62
2023-04-29T15:11:46.571Z,26.82
2023-04-29T15:14:14.706Z,26.37
2023-04-29T15:16:42.904Z,26.77
2023-04-29T15:19:11.112Z,26.87
2023-04-29T15:21:39.268Z,26.69
2023-04-29T15:24:08.739Z,26.74
2023-04-29T15:26:36.918Z,26.99
2023-04-29T15:29:05.094Z,27.46
2023-04-29T15:31:33.478Z,28.07
2023-04-29T15:34:02.030Z,27.78
2023-04-29T15:36:31.256Z,28.12
2023-04-29T15:38:59.510Z,28.42
2023-04-29T15:41:27.853Z,27.94
2023-04-29T15:43:57.422Z,28.50
2023-04-29T15:46:25.811Z,29.42
2023-04-29T15:48:54.022Z,30.17
2023-04-29T15:51:22.164Z,30.49
2023-04-29T15:53:51.099Z,31.67
2023-04-29T15:56:19.187Z,31.73
2023-04-29T15:58:47.447Z,32.11
2023-04-29T16:01:16.181Z,32.01
2023-04-29T16:03:44.528Z,33.02
2023-04-29T16:06:12.790Z,32.35
2023-04-29T16:08:40.883Z,32.74
2023-04-29T16:11:08.950Z,33.00
2023-04-29T16:13:37.152Z,33.68
2023-04-29T16:16:05.379Z,33.94
2023-04-29T16:18:33.823Z,33.90
2023-04-29T16:21:02.841Z,33.70
2023-04-29T16:23:30.978Z,34.10
2023-04-29T16:26:00.097Z,34.07
2023-04-29T16:28:28.182Z,35.17
2023-04-29T16:30:56.348Z,34.60
2023-04-29T16:33:24.470Z,35.03
2023-04-29T16:35:54.144Z,35.46
2023-04-29T16:38:22.221Z,35.95
2023-04-29T16:40:50.887Z,36.05
2023-04-29T16:43:19.313Z,35.90
2023-04-29T16:45:47.489Z,36.02
2023-04-29T16:48:15.706Z,37.01
2023-04-29T16:50:43.903Z,37.22
2023-04-29T16:53:13.475Z,37.98
2023-04-29T16:55:41.616Z,37.46
2023-04-29T16:58:09.956Z,37.86
2023-04-29T17:00:38.278Z,37.73
2023-04-29T17:03:06.622Z,39.18
2023-04-29T17:05:34.737Z,40.24
2023-04-29T17:08:03.564Z,41.84
2023-04-29T17:10:31.829Z,41.34
2023-04-29T17:13:00.130Z,41.06
2023-04-29T17:15:28.244Z,40.59
2023-04-29T17:17:56.632Z,41.02
2023-04-29T17:20:24.923Z,42.10
2023-04-29T17:22:53.241Z,40.58
2023-04-29T17:25:22.648Z,44.07
2023-04-29T17:27:50.796Z,41.77
2023-04-29T17:30:19.224Z,42.21
2023-04-29T17:32:49.709Z,42.26
2023-04-29T17:35:18.155Z,42.32
2023-04-29T17:37:47.023Z,43.63
2023-04-29T17:40:15.169Z,42.81
2023-04-29T17:42:43.281Z,45.97
2023-04-29T17:45:11.784Z,44.25
2023-04-29T17:47:39.966Z,45.32
2023-04-29T17:50:08.404Z,43.25
2023-04-29T17:52:36.551Z,41.78
2023-04-29T17:55:04.992Z,44.43
2023-04-29T17:57:33.184Z,47.06
2023-04-29T18:00:01.191Z,48.41
2023-04-29T18:02:29.449Z,49.80
2023-04-29T18:04:57.706Z,50.48
2023-04-29T18:07:25.993Z,51.54
2023-04-29T18:09:54.597Z,51.24
2023-04-29T18:12:24.190Z,52.35
2023-04-29T18:14:52.402Z,45.46
2023-04-29T18:17:20.808Z,51.75
2023-04-29T18:19:52.705Z,47.95
2023-04-29T18:22:21.142Z,50.68
2023-04-29T18:24:49.892Z,49.51
2023-04-29T18:27:17.972Z,50.60
2023-04-29T18:29:46.072Z,52.84
2023-04-29T18:32:14.151Z,55.68
2023-04-29T18:34:42.665Z,51.43
2023-04-29T18:37:11.183Z,57.21
2023-04-29T18:39:39.317Z,56.67
2023-04-29T18:42:07.514Z,58.10
2023-04-29T18:44:35.649Z,57.18
2023-04-29T18:47:03.738Z,54.85
2023-04-29T18:49:31.888Z,59.30
2023-04-29T18:52:01.328Z,58.27
2023-04-29T18:54:29.398Z,57.86
2023-04-29T18:56:58.817Z,59.46
2023-04-29T18:59:27.045Z,57.33
2023-04-29T19:01:55.401Z,61.25
2023-04-29T19:04:23.714Z,61.64
2023-04-29T19:06:51.876Z,62.10
2023-04-29T19:09:20.277Z,62.66
2023-04-29T19:11:48.424Z,62.54
2023-04-29T19:14:16.512Z,65.41
2023-04-29T19:16:44.722Z,64.42
2023-04-29T19:19:12.896Z,64.00
2023-04-29T19:21:41.078Z,61.71
2023-04-29T19:24:09.437Z,51.42
2023-04-29T19:26:39.990Z,49.73
2023-04-29T19:29:08.406Z,59.29
2023-04-29T19:31:36.504Z,64.05
2023-04-29T19:34:04.639Z,66.69
2023-04-29T19:36:33.330Z,65.44
2023-04-29T19:39:03.886Z,61.33
2023-04-29T19:41:34.624Z,57.04
2023-04-29T19:44:03.160Z,60.13
2023-04-29T19:46:31.250Z,65.00
2023-04-29T19:48:59.888Z,65.47
2023-04-29T19:51:28.178Z,63.66
2023-04-29T19:53:56.781Z,62.56
2023-04-29T19:56:24.947Z,60.28
2023-04-29T19:58:53.188Z,59.59
2023-04-29T20:01:21.342Z,60.63
2023-04-29T20:03:49.800Z,62.80
2023-04-29T20:06:18.193Z,62.42
2023-04-29T20:08:46.498Z,64.24
2023-04-29T20:11:14.695Z,66.52
2023-04-29T20:13:42.913Z,64.25
2023-04-29T20:16:11.497Z,56.33
2023-04-29T20:18:40.966Z,56.60
2023-04-29T20:21:09.131Z,64.74
2023-04-29T20:23:37.296Z,62.13
2023-04-29T20:26:05.492Z,63.80
2023-04-29T20:28:33.575Z,65.71
2023-04-29T20:31:01.775Z,67.61
2023-04-29T20:33:29.950Z,57.44
2023-04-29T20:36:05.483Z,67.03
2023-04-29T20:38:36.819Z,67.10
2023-04-29T20:41:08.270Z,66.98
2023-04-29T20:43:36.438Z,64.97
2023-04-29T20:46:05.100Z,70.31
2023-04-29T20:48:33.811Z,69.98
2023-04-29T20:51:02.069Z,65.55
2023-04-29T20:53:31.446Z,57.80
2023-04-29T20:55:59.602Z,59.34
2023-04-29T20:58:28.117Z,56.73
2023-04-29T21:00:56.632Z,57.62
2023-04-29T21:03:26.182Z,57.90
2023-04-29T21:05:54.893Z,57.82
2023-04-29T21:08:23.023Z,60.50
2023-04-29T21:10:51.550Z,61.14
2023-04-29T21:13:19.685Z,67.72
2023-04-29T21:15:48.081Z,71.31
2023-04-29T21:18:16.344Z,72.05
2023-04-29T21:20:44.698Z,71.25
2023-04-29T21:23:12.927Z,68.65
2023-04-29T21:25:41.152Z,66.98
2023-04-29T21:28:09.462Z,66.44
2023-04-29T21:30:37.592Z,68.36
2023-04-29T21:33:05.776Z,68.05
2023-04-29T21:35:33.917Z,64.25
2023-04-29T21:38:01.923Z,62.55
2023-04-29T21:40:30.209Z,65.20
2023-04-29T21:42:58.772Z,71.64
2023-04-29T21:45:26.809Z,73.39
2023-04-29T21:47:55.925Z,74.49
2023-04-29T21:50:24.035Z,73.06
2023-04-29T21:52:52.215Z,72.38
2023-04-29T21:55:20.477Z,70.32
2023-04-29T21:57:48.566Z,71.90
2023-04-29T22:00:21.129Z,73.57
2023-04-29T22:02:49.447Z,67.43
2023-04-29T22:05:17.647Z,64.20
2023-04-29T22:07:46.225Z,65.36
2023-04-29T22:10:14.313Z,63.78
2023-04-29T22:12:42.389Z,67.44
2023-04-29T22:15:24.675Z,73.30
2023-04-29T22:17:57.579Z,73.11
2023-04-29T22:20:26.013Z,66.27
2023-04-29T22:22:54.439Z,71.31
2023-04-29T22:25:22.948Z,74.00
2023-04-29T22:27:51.996Z,74.77
2023-04-29T22:30:20.964Z,76.55
2023-04-29T22:32:49.275Z,69.23
2023-04-29T22:35:17.447Z,66.94
2023-04-29T22:37:45.471Z,70.49
2023-04-29T22:40:13.899Z,74.71
2023-04-29T22:42:43.045Z,75.11
2023-04-29T22:45:12.189Z,72.64
2023-04-29T22:47:40.479Z,74.91
2023-04-29T22:50:08.928Z,77.64
2023-04-29T22:52:37.089Z,71.90
2023-04-29T22:55:05.380Z,74.56
2023-04-29T22:57:33.511Z,77.08
2023-04-29T23:00:01.690Z,76.59
2023-04-29T23:02:30.085Z,76.96
2023-04-29T23:04:59.325Z,76.27
2023-04-29T23:07:27.738Z,78.08
2023-04-29T23:09:56.132Z,76.95
2023-04-29T23:12:24.992Z,75.74
2023-04-29T23:14:53.182Z,76.50
2023-04-29T23:17:21.393Z,76.48
2023-04-29T23:19:49.618Z,76.75
2023-04-29T23:22:17.969Z,72.03
2023-04-29T23:24:46.249Z,68.18
2023-04-29T23:27:14.401Z,70.01
2023-04-29T23:29:42.472Z,69.94
2023-04-29T23:32:10.739Z,65.09
2023-04-29T23:34:39.404Z,72.54
2023-04-29T23:37:07.522Z,77.27
2023-04-29T23:39:35.806Z,69.80
2023-04-29T23:42:03.985Z,66.63
2023-04-29T23:44:32.050Z,66.61
2023-04-29T23:47:00.159Z,70.74
2023-04-29T23:49:28.746Z,73.60
2023-04-29T23:51:56.830Z,71.20
2023-04-29T23:54:24.886Z,73.34
2023-04-29T23:56:53.042Z,76.89
2023-04-29T23:59:21.141Z,79.24
